AirNav   $300 off a Bose A20
 
 1052 users online  

KMIO Miami Regional Airport
Miami, Oklahoma, USA

GOING TO MIAMI?


FAA INFORMATION EFFECTIVE 18 JULY 2019

Location

FAA Identifier: MIO
Lat/Long: 36-54-33.2000N / 094-53-15.0000W
36-54.553333N / 094-53.250000W
36.9092222 / -94.8875000
(estimated)
Elevation: 806.4 ft. / 245.8 m (surveyed)
Variation: 05E (1985)
From city: 2 miles NW of MIAMI, OK
Time zone: UTC -5 (UTC -6 during Standard Time)
Zip code: 74354

Airport Operations

Airport use: Open to the public
Activation date: 12/1937
Control tower: no
ARTCC: KANSAS CITY CENTER
FSS: MC ALESTER FLIGHT SERVICE STATION
NOTAMs facility: MLC (NOTAM-D service available)
Attendance: MON-SAT 0800-1700, ALL SUN 1200-1700
ARPT UNATNDD THANKSGIVING & CHRISTMAS.
Wind indicator: lighted
Segmented circle: yes
Lights: DUSK-DAWN. ACTVT ODALS RWY 17; REIL RWY 35; MIRL RWY 17/35 - CTAF.
Beacon: white-green (lighted land airport)
Operates sunset to sunrise.

Airport Communications

CTAF/UNICOM: 122.8
WX AWOS-3PT: 119.675 (918-544-6164)
WX AWOS-3 at GMJ (20 nm S): 119.025 (918-786-8350)
  • APCH/DEP SVC PRVDD BY KANSAS CITY ARTCC ON FREQS 128.6/282.325 (EDNA RCAG).

Nearby radio navigation aids

VOR radial/distance  VOR name  Freq  Var
OSWr127/21.2OSWEGO VOR/DME117.6008E
EOSr273/22.1NEOSHO VOR/DME117.3007E

 
NDB name  Hdg/Dist  Freq  Var  ID
COFFEYVILLE104/34.621205ECFV -.-. ..-. ...-

Airport Services

Fuel available: 100LL JET-A
FUEL AVBL 24 HRS WITH CC.
Parking: hangars and tiedowns
Airframe service: MAJOR
Powerplant service: MAJOR
Bottled oxygen: NONE
Bulk oxygen: NONE

Runway Information

Runway 17/35

Dimensions: 5020 x 100 ft. / 1530 x 30 m
Surface: asphalt, in excellent condition
Weight bearing capacity: 
Single wheel: 23.0
Runway edge lights: medium intensity
RUNWAY 17  RUNWAY 35
Latitude: 36-54.966527N36-54.139247N
Longitude: 094-53.246198W094-53.253862W
Elevation: 806.3 ft.799.6 ft.
Traffic pattern: rightleft
Runway heading: 175 magnetic, 180 true355 magnetic, 000 true
Markings: nonprecision, in good conditionnonprecision, in good condition
Visual slope indicator: 4-light PAPI on left (3.00 degrees glide path)4-light PAPI on left (3.00 degrees glide path)
Approach lights: ODALS: omnidirectional approach lighting system
Runway end identifier lights: yes
Touchdown point: yes, no lightsyes, no lights
Obstructions: 30 ft. trees, 670 ft. from runway, 190 ft. left of centerline, 15:1 slope to clearnone

Airport Ownership and Management from official FAA records

Ownership: Publicly-owned
Owner: CITY OF MIAMI
CITY HALL PO BOX 1288
MIAMI, OK 74355
Phone 918-542-6685
Manager: THOMAS ANDERSON
2600 REX PLOTT DR
MIAMI, OK 74355
Phone (918) 541-2290
ALTERNATE PHONE # 918-541-0495.

Airport Operational Statistics

Aircraft based on the field: 26
Single engine airplanes: 23
Multi engine airplanes: 3
    
Aircraft operations: avg 33/day *
66% transient general aviation
33% local general aviation
<1% military
* for 12-month period ending 20 November 2018

Additional Remarks

FOR CD CTC KANSAS CITY ARTCC AT 913-254-8508.

Instrument Procedures

NOTE: All procedures below are presented as PDF files. If you need a reader for these files, you should download the free Adobe Reader.

NOT FOR NAVIGATION. Please procure official charts for flight.
FAA instrument procedures published for use from 18 July 2019 at 0901Z to 16 August 2019 at 0900Z.

 
IAPs - Instrument Approach Procedures
RNAV (GPS) RWY 17   download (204KB)
VOR/DME-A   download (132KB)
NOTE: Special Take-Off Minimums/Departure Procedures apply   download (202KB)

Other nearby airports with instrument procedures:

KGMJ - Grove Municipal Airport (20 nm S)
1K8 - South Grand Lake Regional Airport (23 nm S)
KJLN - Joplin Regional Airport (24 nm NE)
KEOS - Neosho Hugh Robinson Airport (25 nm E)
KPTS - Atkinson Municipal Airport (33 nm N)
 
Loc | Ops | Rwys | IFR | FBO | Links
Com | Nav | Svcs | Stats | Notes
Area around KMIO (Miami Regional Airport)
 
Road maps at: MapQuest Bing Google
 
Aerial photo
WARNING: Photo may not be current or correct
Aerial photo of KMIO (Miami Regional Airport)
Do you have a better or more recent aerial photo of Miami Regional Airport that you would like to share? If so, please send us your photo.

 
Sectional chart

 
Airport distance calculator
Flying to Miami Regional Airport? Find the distance to fly.

From to KMIO

Sunrise and sunset
Times for 21-Jul-2019
 Local
(UTC-5)
 Zulu
(UTC)
Morning civil twilight05:4810:48
Sunrise06:1711:17
Sunset20:3501:35
Evening civil twilight21:0402:04

Current date and time
Zulu (UTC)  22-Jul-2019 02:31:44
Local (UTC-5)  21-Jul-2019 21:31:44
 
METAR
KGMJ 
20nm S 
220215Z AUTO 16004KT 10SM CLR 28/22 A2989 RMK AO2 LTG DSNT NW
KJLN 
24nm NE 
220153Z 17005KT 10SM CLR 29/23 A2988 RMK AO2 LTG DSNT N AND NW SLP106 T02940233
KEOS 
25nm E 
SuperAWOS
220155Z AUTO 00000KT 10SM 28/26 A2993
KPTS 
33nm N 
220215Z AUTO 35014G28KT 310V030 7SM +VCTSRA SCT038 BKN050 OVC080 24/21 A2990 RMK AO2 LTG DSNT ALQS P0002 T02420208
KCFV 
34nm W 
220209Z AUTO 15005KT 10SM VCTS BKN070 31/23 A2986 RMK AO2 LTG DSNT W-NE T03110233
KPPF 
39nm NW 
220220Z AUTO 32019G34KT 1SM +TSRA BR FEW010 BKN031 OVC050 22/21 A2999 RMK AO2 PK WND 36067/0158 WSHFT 0150 LTG DSNT ALQDS RAB0157 TSB0155 P0031 T02170206
TAF
KJLN 
24nm NE 
220208Z 2202/2224 VRB05KT P6SM FEW200 FM220230 33025G35KT 1SM TSRA BKN025CB FM220300 16006KT P6SM VCSH BKN090 TEMPO 2203/2207 4SM TSRA BR OVC025CB FM220700 30007KT P6SM OVC023 PROB30 2211/2217 4SM TSRA BR OVC009CB FM221800 02013G21KT P6SM BKN070
NOTAMs
Click for the latest NOTAMs
NOTAMs are issued by the DoD/FAA and will open in a separate window not controlled by AirNav.

 

 
 

FBO, Fuel Providers, and Aircraft Ground Support

  
 Business Name 
 
 Contact 
 
 Services / Description 
 
Fuel Prices
 
Comments
  
Miami Airport 918-541-2290
no information available

If you are affiliated with Miami Airport and would like to show here your services, contact info, web link, logo, and more, click here
100LL Jet A
FS $4.25 $4.70 
SS $4.15 $4.25 
 Updated 18-Jul-2019
 
   3 read write
FS=Full service
SS=Self service
Update Fuel Prices
 

Would you like to see your business listed on this page?

 If your business provides an interesting product or service to pilots, flight crews, aircraft, or users of the Miami Regional Airport, you should consider listing it here.  To start the listing process, click on the button below
 
Add a business
 

Other Pages about Miami Regional Airport

www.miamiokla.net/index.aspx?nid=125
 
Update a link
 
Copyright © AirNav, LLC. All rights reserved. Privacy Policy  Contact